Time;durP1;ratioP1;P1;durP2;ratioP2;P2;SDS_P1;SDS_P2;PMS_P1;PMS_P2;Temp;Humidity;BMP_temperature;BMP_pressure;BME280_temperature;BME280_humidity;BME280_pressure;Samples;Min_cycle;Max_cycle;Signal;HPM_P1;HPM_P2
2023/07/01 00:01:09;;;;;;;3.88;1.00;;;16.80;81.60;;;;;;6213099;23;20034;-91
2023/07/01 00:03:35;;;;;;;4.90;1.15;;;16.80;81.20;;;;;;6238806;23;20012;-89
2023/07/01 00:06:02;;;;;;;6.30;0.77;;;16.70;81.30;;;;;;6211549;23;20046;-92
2023/07/01 00:08:28;;;;;;;7.28;0.90;;;16.80;81.70;;;;;;6209399;23;20075;-88
2023/07/01 00:11:00;;;;;;;9.02;1.20;;;16.80;82.20;;;;;;6212786;23;20402;-91
2023/07/01 00:13:27;;;;;;;4.70;0.75;;;16.80;81.80;;;;;;6211465;23;20024;-87
2023/07/01 00:15:57;;;;;;;6.63;0.85;;;16.80;81.80;;;;;;6211078;23;20016;-87
2023/07/01 00:18:26;;;;;;;13.15;1.40;;;16.80;81.60;;;;;;6211346;23;20098;-90
2023/07/01 00:21:02;;;;;;;6.90;2.28;;;16.80;82.60;;;;;;6208553;23;20091;-88
2023/07/01 00:23:28;;;;;;;3.97;0.80;;;16.90;81.90;;;;;;6209989;23;20340;-87
2023/07/01 00:26:00;;;;;;;9.80;1.30;;;16.70;84.40;;;;;;6210684;23;20027;-88
2023/07/01 00:28:25;;;;;;;8.02;1.20;;;16.90;86.70;;;;;;6211469;23;20026;-89
2023/07/01 00:30:51;;;;;;;6.22;1.40;;;17.70;84.90;;;;;;6208940;23;20008;-89
2023/07/01 00:33:17;;;;;;;6.55;1.20;;;14.90;83.10;;;;;;6237435;23;20019;-90
2023/07/01 00:35:43;;;;;;;9.55;1.17;;;16.70;86.30;;;;;;6213183;23;20016;-90
2023/07/01 00:38:09;;;;;;;6.00;1.83;;;16.80;83.20;;;;;;6213236;23;20012;-90
2023/07/01 00:40:35;;;;;;;5.75;1.25;;;16.80;83.40;;;;;;6212158;23;20016;-90
2023/07/01 00:43:00;;;;;;;5.97;2.13;;;16.80;83.70;;;;;;6213234;23;20095;-89
2023/07/01 00:45:26;;;;;;;5.93;1.45;;;16.80;83.10;;;;;;6213283;23;20020;-94
2023/07/01 00:47:52;;;;;;;6.50;0.73;;;16.80;83.60;;;;;;6234922;23;20027;-87
2023/07/01 00:50:18;;;;;;;8.15;1.90;;;16.80;83.20;;;;;;6212778;23;20090;-90
2023/07/01 00:52:44;;;;;;;4.03;1.20;;;16.90;83.40;;;;;;6237622;23;20462;-90
2023/07/01 00:55:10;;;;;;;8.13;1.65;;;16.90;83.50;;;;;;6239389;23;20020;-90
2023/07/01 00:57:37;;;;;;;4.82;0.88;;;16.90;83.20;;;;;;6212954;23;20020;-89
2023/07/01 01:00:10;;;;;;;4.15;0.90;;;16.90;83.00;;;;;;6214360;23;20441;-90
2023/07/01 01:03:00;;;;;;;6.78;1.60;;;17.00;83.60;;;;;;6236198;23;20547;-88
2023/07/01 01:05:35;;;;;;;4.35;0.95;;;16.90;82.80;;;;;;6215038;23;20020;-89
2023/07/01 01:08:07;;;;;;;8.15;1.63;;;16.90;82.80;;;;;;6214300;23;20338;-92
2023/07/01 01:10:35;;;;;;;4.30;1.10;;;17.00;82.90;;;;;;6209133;23;20020;-90
2023/07/01 01:13:04;;;;;;;4.95;1.00;;;17.00;82.90;;;;;;6212770;23;20020;-88
2023/07/01 01:15:31;;;;;;;13.27;1.80;;;16.90;82.90;;;;;;6213221;23;20012;-92
2023/07/01 01:18:02;;;;;;;5.97;1.10;;;17.00;83.10;;;;;;6233665;23;20020;-87
2023/07/01 01:20:30;;;;;;;9.43;1.10;;;17.00;83.10;;;;;;6213644;23;20004;-89
2023/07/01 01:23:01;;;;;;;3.60;0.80;;;17.00;83.20;;;;;;6212359;23;20123;-89
2023/07/01 01:25:52;;;;;;;6.63;1.33;;;17.00;83.00;;;;;;6210455;23;20024;-87
2023/07/01 01:28:18;;;;;;;5.28;1.40;;;17.00;82.80;;;;;;6243656;23;20020;-88
2023/07/01 01:30:43;;;;;;;5.18;1.15;;;17.10;83.30;;;;;;6215441;23;20095;-87
2023/07/01 01:33:09;;;;;;;3.35;0.80;;;17.00;84.10;;;;;;6215921;23;20019;-88
2023/07/01 01:35:35;;;;;;;7.47;1.38;;;17.00;83.90;;;;;;6215199;23;20016;-88
2023/07/01 01:38:11;;;;;;;5.22;1.38;;;17.00;84.10;;;;;;6215280;23;20066;-88
2023/07/01 01:40:59;;;;;;;7.82;1.05;;;17.00;83.50;;;;;;6218338;23;20385;-90
2023/07/01 01:43:49;;;;;;;7.07;1.40;;;17.00;83.50;;;;;;6217902;23;20478;-90
2023/07/01 01:46:17;;;;;;;4.28;1.02;;;17.00;83.60;;;;;;6244069;23;20012;-88
2023/07/01 01:48:43;;;;;;;4.18;1.10;;;17.00;83.80;;;;;;6215412;23;20016;-88
2023/07/01 01:51:09;;;;;;;3.83;1.27;;;17.00;84.30;;;;;;6212645;23;20023;-90
2023/07/01 01:53:41;;;;;;;4.55;0.95;;;17.00;84.10;;;;;;6215729;23;20087;-89
2023/07/01 01:56:07;;;;;;;7.53;1.15;;;17.40;85.50;;;;;;6216512;23;20020;-89
2023/07/01 01:58:33;;;;;;;5.57;0.98;;;17.10;84.80;;;;;;6217526;23;20016;-88
2023/07/01 02:00:59;;;;;;;8.68;1.45;;;16.90;84.70;;;;;;6241900;23;20016;-90
2023/07/01 02:03:25;;;;;;;5.95;1.20;;;16.90;86.70;;;;;;6236138;23;20019;-88
2023/07/01 02:05:51;;;;;;;5.50;1.83;;;17.00;84.90;;;;;;6213596;23;20087;-88
2023/07/01 02:08:17;;;;;;;4.80;1.50;;;16.90;84.50;;;;;;6216633;23;20024;-90
2023/07/01 02:10:42;;;;;;;4.90;1.83;;;17.00;84.80;;;;;;6242626;23;20062;-90
2023/07/01 02:13:08;;;;;;;6.75;1.70;;;17.00;84.80;;;;;;6216872;23;20447;-90
2023/07/01 02:15:34;;;;;;;7.93;1.85;;;17.00;84.90;;;;;;6216460;23;20016;-86
2023/07/01 02:17:59;;;;;;;6.35;1.70;;;17.00;85.00;;;;;;6213415;23;20019;-88
2023/07/01 02:20:33;;;;;;;6.15;2.20;;;17.00;85.10;;;;;;6216586;23;20069;-92
2023/07/01 02:22:59;;;;;;;6.38;2.35;;;17.00;85.70;;;;;;6215238;23;20034;-88
2023/07/01 02:25:25;;;;;;;10.60;2.90;;;17.00;87.40;;;;;;6241826;23;20016;-90
2023/07/01 02:27:51;;;;;;;8.23;2.47;;;17.00;85.50;;;;;;6217740;23;20012;-89
2023/07/01 02:30:17;;;;;;;8.30;2.53;;;17.00;86.10;;;;;;6210354;23;20099;-88
2023/07/01 02:32:42;;;;;;;7.80;2.80;;;17.10;88.30;;;;;;6215931;23;20516;-89
2023/07/01 02:35:08;;;;;;;7.57;2.50;;;16.90;87.10;;;;;;6216820;23;20561;-91
2023/07/01 02:37:34;;;;;;;6.40;2.85;;;16.90;87.60;;;;;;6241385;23;20019;-89
2023/07/01 02:40:00;;;;;;;6.88;2.45;;;16.80;88.40;;;;;;6216230;23;20455;-92
2023/07/01 02:42:26;;;;;;;5.93;2.35;;;16.70;89.20;;;;;;6217424;23;20012;-91
2023/07/01 02:44:53;;;;;;;7.43;2.60;;;16.70;89.00;;;;;;6242719;23;20085;-94
2023/07/01 02:47:19;;;;;;;8.35;2.50;;;16.60;89.60;;;;;;6217797;23;20012;-90
2023/07/01 02:49:44;;;;;;;6.07;3.03;;;16.60;89.30;;;;;;6218678;23;20055;-89
2023/07/01 02:52:11;;;;;;;5.30;2.05;;;16.60;90.20;;;;;;6215611;23;20444;-89
2023/07/01 02:54:40;;;;;;;7.72;1.70;;;16.50;89.50;;;;;;6213260;23;20051;-89
2023/07/01 02:57:07;;;;;;;4.05;1.67;;;16.50;90.30;;;;;;6216121;23;20306;-89
2023/07/01 02:59:33;;;;;;;7.38;2.60;;;16.50;89.70;;;;;;6215934;23;20012;-92
2023/07/01 03:01:59;;;;;;;11.90;2.47;;;14.20;90.70;;;;;;6213286;23;20016;-92
2023/07/01 03:04:25;;;;;;;7.43;2.33;;;16.50;90.90;;;;;;6211460;23;20026;-88
2023/07/01 03:06:51;;;;;;;6.10;2.50;;;16.60;90.50;;;;;;6210603;23;20016;-92
2023/07/01 03:09:16;;;;;;;6.10;1.50;;;16.50;89.50;;;;;;6213170;23;20146;-89
2023/07/01 03:11:45;;;;;;;6.13;2.05;;;16.50;89.60;;;;;;6239695;23;20366;-87
2023/07/01 03:14:12;;;;;;;8.60;2.28;;;16.60;89.90;;;;;;6216585;23;20016;-89
2023/07/01 03:16:41;;;;;;;4.18;1.50;;;16.60;90.00;;;;;;6216685;23;20008;-92
2023/07/01 03:19:07;;;;;;;4.45;1.98;;;16.50;90.10;;;;;;6214887;23;20016;-89
2023/07/01 03:21:34;;;;;;;8.45;1.67;;;16.60;89.70;;;;;;6217499;23;20012;-86
2023/07/01 03:24:00;;;;;;;7.35;1.98;;;16.60;89.70;;;;;;6218364;23;20015;-90
2023/07/01 03:26:27;;;;;;;8.00;2.10;;;16.60;89.80;;;;;;6217954;23;20016;-94
2023/07/01 03:28:53;;;;;;;5.18;1.70;;;16.60;90.00;;;;;;6218826;23;20017;-90
2023/07/01 03:31:23;;;;;;;5.13;1.83;;;16.60;90.00;;;;;;6219637;23;20023;-92
2023/07/01 03:33:50;;;;;;;4.63;1.80;;;16.60;90.00;;;;;;6213090;23;20016;-90
2023/07/01 03:36:16;;;;;;;4.03;2.10;;;16.60;90.10;;;;;;6212293;23;20026;-91
2023/07/01 03:38:42;;;;;;;5.00;2.35;;;18.50;91.30;;;;;;6217014;23;20101;-92
2023/07/01 03:41:08;;;;;;;4.65;1.50;;;16.80;91.70;;;;;;6217447;23;20099;-95
2023/07/01 03:43:34;;;;;;;7.57;1.63;;;16.80;91.10;;;;;;6242026;23;20070;-88
2023/07/01 03:46:00;;;;;;;7.13;2.00;;;16.80;91.00;;;;;;6218812;23;20027;-91
2023/07/01 03:48:26;;;;;;;5.32;1.77;;;16.60;91.00;;;;;;6242092;23;20020;-89
2023/07/01 03:50:52;;;;;;;6.88;2.50;;;16.50;91.00;;;;;;6216961;23;20447;-89
2023/07/01 03:53:18;;;;;;;7.28;2.22;;;16.60;91.40;;;;;;6217500;23;20501;-92
2023/07/01 03:55:44;;;;;;;5.50;2.22;;;16.50;91.70;;;;;;6216601;23;20052;-95
2023/07/01 03:58:09;;;;;;;8.10;3.10;;;16.50;93.10;;;;;;6244032;23;20019;-91
2023/07/01 04:00:36;;;;;;;5.20;2.38;;;16.20;93.10;;;;;;6243776;23;20520;-92
2023/07/01 04:03:08;;;;;;;6.30;2.47;;;16.10;93.50;;;;;;6217023;23;20016;-90
2023/07/01 04:05:35;;;;;;;6.80;2.55;;;16.10;93.90;;;;;;6218025;23;20019;-91
2023/07/01 04:08:02;;;;;;;5.88;2.63;;;16.50;94.40;;;;;;6218881;23;20447;-93
2023/07/01 04:10:30;;;;;;;8.95;2.88;;;16.00;94.80;;;;;;6219540;23;20012;-89
2023/07/01 04:13:00;;;;;;;7.07;2.55;;;16.00;95.20;;;;;;6217542;23;20462;-93
2023/07/01 04:15:29;;;;;;;7.70;2.97;;;14.60;95.50;;;;;;6218656;23;20016;-92
2023/07/01 04:17:55;;;;;;;5.07;2.00;;;13.10;94.60;;;;;;6218272;23;20016;-92
2023/07/01 04:20:20;;;;;;;4.90;2.83;;;15.80;96.00;;;;;;6219089;23;20016;-87
2023/07/01 04:22:47;;;;;;;3.65;1.95;;;15.90;95.50;;;;;;6243846;23;20012;-88
2023/07/01 04:25:13;;;;;;;5.38;1.95;;;15.90;95.60;;;;;;6219235;23;20012;-93
2023/07/01 04:27:42;;;;;;;5.55;2.58;;;15.90;96.10;;;;;;6242767;23;20502;-92
2023/07/01 04:30:08;;;;;;;6.05;2.13;;;15.90;96.00;;;;;;6219263;23;20016;-92
2023/07/01 04:32:34;;;;;;;3.67;2.22;;;15.90;96.10;;;;;;6218557;23;20022;-90
2023/07/01 04:35:01;;;;;;;4.65;2.25;;;16.00;96.30;;;;;;6217953;23;20502;-89
2023/07/01 04:37:27;;;;;;;4.65;2.38;;;15.90;96.60;;;;;;6244689;23;20051;-90
2023/07/01 04:39:52;;;;;;;3.63;1.67;;;15.90;96.60;;;;;;6218555;23;20016;-93
2023/07/01 04:42:18;;;;;;;5.63;1.92;;;16.00;96.70;;;;;;6219324;23;20012;-90
2023/07/01 04:44:44;;;;;;;6.35;1.70;;;15.90;96.80;;;;;;6218649;23;20105;-89
2023/07/01 04:47:11;;;;;;;7.22;1.85;;;16.00;97.00;;;;;;6218781;23;20096;-91
2023/07/01 04:49:40;;;;;;;6.47;2.20;;;15.90;97.50;;;;;;6242211;23;20104;-88
2023/07/01 04:52:14;;;;;;;4.78;2.15;;;15.90;99.10;;;;;;6212572;23;20020;-91
2023/07/01 04:54:42;;;;;;;3.75;2.03;;;16.20;98.40;;;;;;6212882;23;20406;-92
2023/07/01 04:57:14;;;;;;;6.40;2.00;;;16.30;97.90;;;;;;6212340;23;20012;-91
2023/07/01 04:59:48;;;;;;;4.47;2.20;;;16.20;98.40;;;;;;6212032;23;20012;-89
2023/07/01 05:02:16;;;;;;;8.15;2.15;;;16.40;97.90;;;;;;6212563;23;20023;-88
2023/07/01 05:04:48;;;;;;;6.88;2.30;;;16.20;98.60;;;;;;6211535;23;20026;-90
2023/07/01 05:07:17;;;;;;;7.57;1.98;;;16.80;98.30;;;;;;6211499;23;20020;-89
2023/07/01 05:09:43;;;;;;;6.97;2.20;;;16.00;99.10;;;;;;6236892;23;20024;-90
2023/07/01 05:12:09;;;;;;;4.35;2.30;;;16.60;99.30;;;;;;6235584;23;20020;-90
2023/07/01 05:14:34;;;;;;;5.63;2.17;;;16.60;99.00;;;;;;6211181;23;20761;-90
2023/07/01 05:17:00;;;;;;;4.18;2.25;;;16.30;99.40;;;;;;6236790;23;20012;-89
2023/07/01 05:19:26;;;;;;;5.55;2.10;;;15.50;98.40;;;;;;6238063;23;20466;-88
2023/07/01 05:21:54;;;;;;;4.28;2.00;;;16.70;99.20;;;;;;6211774;23;20019;-88
2023/07/01 05:24:20;;;;;;;6.38;1.92;;;16.40;97.70;;;;;;6237012;23;20020;-87
2023/07/01 05:26:50;;;;;;;5.63;2.15;;;17.00;98.30;;;;;;6209841;23;20024;-88
2023/07/01 05:29:17;;;;;;;5.78;2.55;;;19.70;98.80;;;;;;6236718;23;20015;-88
2023/07/01 05:31:43;;;;;;;6.47;1.95;;;16.40;97.80;;;;;;6213442;23;20016;-87
2023/07/01 05:34:09;;;;;;;5.55;2.03;;;16.40;97.70;;;;;;6213221;23;20016;-87
2023/07/01 05:36:36;;;;;;;3.83;2.42;;;16.40;97.90;;;;;;6212874;23;20639;-86
2023/07/01 05:39:03;;;;;;;3.80;1.85;;;16.50;98.20;;;;;;6212599;23;20086;-87
2023/07/01 05:41:29;;;;;;;4.03;2.15;;;16.40;97.70;;;;;;6212194;23;20015;-91
2023/07/01 05:43:55;;;;;;;4.45;2.20;;;16.50;97.80;;;;;;6212061;23;20012;-88
2023/07/01 05:46:21;;;;;;;5.85;2.33;;;16.50;97.80;;;;;;6236340;23;20043;-89
2023/07/01 05:48:49;;;;;;;7.97;3.65;;;16.50;98.60;;;;;;6212650;23;20035;-90
2023/07/01 05:51:15;;;;;;;5.85;2.67;;;16.60;97.90;;;;;;6213130;23;20020;-87
2023/07/01 05:53:41;;;;;;;6.30;2.00;;;16.70;97.70;;;;;;6212565;23;20043;-90
2023/07/01 05:56:06;;;;;;;5.25;2.30;;;19.10;98.20;;;;;;6213497;23;20095;-86
2023/07/01 05:58:32;;;;;;;6.05;2.75;;;16.80;97.70;;;;;;6211643;23;20797;-87
2023/07/01 06:01:00;;;;;;;5.38;2.35;;;16.80;97.60;;;;;;6237980;23;20073;-89
2023/07/01 06:03:26;;;;;;;5.47;2.13;;;16.90;98.10;;;;;;6211925;23;20030;-87
2023/07/01 06:05:52;;;;;;;6.07;2.33;;;17.00;98.40;;;;;;6211927;23;20817;-89
2023/07/01 06:08:17;;;;;;;6.35;2.47;;;19.30;99.40;;;;;;6212761;23;20424;-86
2023/07/01 06:10:43;;;;;;;7.78;2.25;;;17.80;99.10;;;;;;6211968;23;20020;-89
2023/07/01 06:13:09;;;;;;;6.68;2.20;;;17.10;97.80;;;;;;6213497;23;20401;-88
2023/07/01 06:15:35;;;;;;;6.10;2.35;;;17.10;97.80;;;;;;6213757;23;20016;-87
2023/07/01 06:18:01;;;;;;;7.78;2.03;;;17.80;98.50;;;;;;6239250;23;20073;-89
2023/07/01 06:20:26;;;;;;;4.35;2.20;;;17.20;99.20;;;;;;6214671;23;20070;-89
2023/07/01 06:22:52;;;;;;;3.92;2.47;;;17.50;98.50;;;;;;6215417;23;20043;-87
2023/07/01 06:25:26;;;;;;;6.05;2.45;;;17.30;99.30;;;;;;6240921;23;20020;-87
2023/07/01 06:27:51;;;;;;;5.10;2.60;;;17.60;98.70;;;;;;6212361;23;20052;-87
2023/07/01 06:30:17;;;;;;;6.00;2.45;;;17.40;99.10;;;;;;6238943;23;20026;-88
2023/07/01 06:32:43;;;;;;;5.18;2.13;;;17.50;98.00;;;;;;6240042;23;20668;-90
2023/07/01 06:35:12;;;;;;;5.95;2.47;;;17.70;98.80;;;;;;6214746;23;20020;-89
2023/07/01 06:37:41;;;;;;;7.45;2.97;;;17.60;99.40;;;;;;6215647;23;20018;-86
2023/07/01 06:40:07;;;;;;;5.88;2.35;;;17.60;97.70;;;;;;6240030;23;20016;-90
2023/07/01 06:42:36;;;;;;;6.80;2.63;;;17.70;97.70;;;;;;6215735;23;20016;-92
2023/07/01 06:45:05;;;;;;;5.65;2.83;;;17.70;98.70;;;;;;6214020;23;20016;-88
2023/07/01 06:47:34;;;;;;;5.65;2.33;;;16.00;97.90;;;;;;6215943;23;20047;-92
2023/07/01 06:49:59;;;;;;;8.00;2.95;;;18.00;99.30;;;;;;6211748;23;20008;-89
2023/07/01 06:52:25;;;;;;;5.25;2.58;;;18.40;98.40;;;;;;6211031;23;20073;-89
2023/07/01 06:54:56;;;;;;;5.03;2.95;;;17.90;98.50;;;;;;6214492;23;20020;-91
2023/07/01 06:57:22;;;;;;;4.80;3.20;;;18.10;98.10;;;;;;6213831;23;20443;-89
2023/07/01 06:59:47;;;;;;;5.88;3.28;;;17.90;99.20;;;;;;6214973;23;20107;-86
2023/07/01 07:02:19;;;;;;;4.68;3.67;;;18.10;99.80;;;;;;6239702;23;20023;-91
2023/07/01 07:04:48;;;;;;;7.05;3.10;;;15.30;99.80;;;;;;6217332;23;20495;-90
2023/07/01 07:07:13;;;;;;;5.82;3.42;;;17.50;98.90;;;;;;6215445;23;20028;-90
2023/07/01 07:09:39;;;;;;;3.85;3.40;;;17.80;99.90;;;;;;6216302;23;20016;-88
2023/07/01 07:12:06;;;;;;;4.88;2.63;;;17.80;99.70;;;;;;6214635;23;20018;-90
2023/07/01 07:14:40;;;;;;;5.22;3.05;;;17.80;99.90;;;;;;6214558;23;20016;-87
2023/07/01 07:17:06;;;;;;;4.47;3.25;;;17.90;99.70;;;;;;6216116;23;20581;-91
2023/07/01 07:19:31;;;;;;;5.00;2.85;;;17.90;99.60;;;;;;6213944;23;20012;-89
2023/07/01 07:21:57;;;;;;;5.07;2.83;;;18.00;99.80;;;;;;6216967;23;20023;-90
2023/07/01 07:24:25;;;;;;;6.32;3.38;;;18.10;99.70;;;;;;6214010;23;20505;-90
2023/07/01 07:27:00;;;;;;;3.88;2.53;;;18.10;99.50;;;;;;6212622;23;20047;-88
2023/07/01 07:29:30;;;;;;;4.88;2.90;;;18.20;99.60;;;;;;6238998;23;20023;-89
2023/07/01 07:32:00;;;;;;;5.40;2.80;;;18.20;99.60;;;;;;6213930;23;20052;-90
2023/07/01 07:34:28;;;;;;;4.30;3.20;;;18.40;99.60;;;;;;6210876;23;20031;-88
2023/07/01 07:36:56;;;;;;;4.75;2.85;;;18.50;99.90;;;;;;6211753;23;20048;-88
2023/07/01 07:39:22;;;;;;;4.13;2.50;;;18.60;99.40;;;;;;6211611;23;20023;-88
2023/07/01 07:41:49;;;;;;;3.97;2.70;;;18.70;99.20;;;;;;6213035;23;20016;-89
2023/07/01 07:44:15;;;;;;;4.28;2.72;;;18.90;99.50;;;;;;6214657;23;20016;-88
2023/07/01 07:46:42;;;;;;;4.00;2.72;;;18.90;99.00;;;;;;6213177;23;20328;-88
2023/07/01 07:49:08;;;;;;;4.43;2.80;;;15.90;98.40;;;;;;6214114;23;20012;-88
2023/07/01 07:51:34;;;;;;;4.40;2.42;;;18.60;99.90;;;;;;6212774;23;20027;-87
2023/07/01 07:54:05;;;;;;;3.30;2.30;;;18.90;99.90;;;;;;6215219;23;20007;-89
2023/07/01 07:56:33;;;;;;;6.72;2.90;;;19.00;99.90;;;;;;6217267;23;20105;-88
2023/07/01 07:59:04;;;;;;;4.28;2.85;;;19.50;99.10;;;;;;6217472;23;20035;-91
2023/07/01 08:01:30;;;;;;;4.72;2.78;;;18.70;99.80;;;;;;6216818;23;20019;-93
2023/07/01 08:03:55;;;;;;;4.75;3.50;;;18.40;99.90;;;;;;6218198;23;20009;-89
2023/07/01 08:06:21;;;;;;;3.63;2.60;;;18.70;99.50;;;;;;6215705;23;20020;-87
2023/07/01 08:08:47;;;;;;;5.45;2.78;;;18.70;99.60;;;;;;6216484;23;20020;-87
2023/07/01 08:11:13;;;;;;;4.88;2.45;;;18.70;99.60;;;;;;6217165;23;20070;-93
2023/07/01 08:13:38;;;;;;;5.47;3.22;;;18.70;99.90;;;;;;6242348;23;20016;-88
2023/07/01 08:16:14;;;;;;;7.22;3.00;;;18.80;99.90;;;;;;6216834;23;20074;-89
2023/07/01 08:18:41;;;;;;;5.35;3.13;;;19.20;99.90;;;;;;6216621;23;20087;-88
2023/07/01 08:21:06;;;;;;;5.05;3.42;;;18.70;99.60;;;;;;6216251;23;20023;-88
2023/07/01 08:23:32;;;;;;;4.32;2.92;;;18.80;99.70;;;;;;6216821;23;20016;-91
2023/07/01 08:25:58;;;;;;;3.88;2.80;;;18.70;99.60;;;;;;6218178;23;20031;-92
2023/07/01 08:28:24;;;;;;;4.85;3.17;;;18.80;99.60;;;;;;6217763;23;20050;-91
2023/07/01 08:30:50;;;;;;;4.70;3.20;;;18.80;99.50;;;;;;6216811;23;20020;-91
2023/07/01 08:33:16;;;;;;;4.85;3.15;;;18.90;99.60;;;;;;6218246;23;20045;-92
2023/07/01 08:35:42;;;;;;;6.80;3.72;;;19.00;99.70;;;;;;6217951;23;20027;-87
2023/07/01 08:38:14;;;;;;;3.97;3.55;;;19.10;99.80;;;;;;6216012;23;20015;-87
2023/07/01 08:40:40;;;;;;;4.22;3.35;;;19.20;99.40;;;;;;6216222;23;20016;-88
2023/07/01 08:43:18;;;;;;;4.15;2.60;;;19.30;99.40;;;;;;6215372;23;20012;-88
2023/07/01 08:45:46;;;;;;;4.63;3.50;;;19.40;99.40;;;;;;6216553;23;20115;-87
2023/07/01 08:48:15;;;;;;;3.38;2.75;;;19.50;99.20;;;;;;6215357;23;20050;-93
2023/07/01 08:50:48;;;;;;;4.13;3.00;;;19.60;99.60;;;;;;6212635;23;20051;-90
2023/07/01 08:53:20;;;;;;;4.65;3.03;;;19.70;99.10;;;;;;6213062;23;20020;-89
2023/07/01 08:55:49;;;;;;;5.28;3.58;;;19.70;99.20;;;;;;6212874;23;20017;-92
2023/07/01 08:58:20;;;;;;;4.38;3.30;;;18.20;99.00;;;;;;6213883;23;20480;-91
2023/07/01 09:00:49;;;;;;;4.57;3.70;;;19.70;99.40;;;;;;6212566;23;20020;-90
2023/07/01 09:03:24;;;;;;;4.88;3.53;;;19.60;99.70;;;;;;6212001;23;20022;-94
2023/07/01 09:05:53;;;;;;;4.50;3.95;;;17.60;99.60;;;;;;6213028;23;20020;-90
2023/07/01 09:08:22;;;;;;;5.40;3.50;;;20.30;99.90;;;;;;6218040;23;20022;-88
2023/07/01 09:10:48;;;;;;;4.47;4.07;;;20.10;99.90;;;;;;6218298;23;20087;-92
2023/07/01 09:13:14;;;;;;;4.90;3.72;;;20.00;99.90;;;;;;6217222;23;20020;-89
2023/07/01 09:15:46;;;;;;;4.57;3.10;;;20.40;99.90;;;;;;6221175;23;20016;-95
2023/07/01 09:18:43;;;;;;;;;;;21.80;99.90;;;;;;6221020;23;20012;-91
2023/07/01 09:21:19;;;;;;;5.50;3.70;;;20.00;99.90;;;;;;6193616;23;19915;-93
2023/07/01 09:23:44;;;;;;;4.03;3.08;;;20.00;99.90;;;;;;6221673;23;20016;-95
2023/07/01 09:26:14;;;;;;;3.47;3.17;;;19.70;99.70;;;;;;6220570;23;20022;-92
2023/07/01 09:28:45;;;;;;;3.78;3.10;;;19.60;99.50;;;;;;6220049;23;20016;-93
2023/07/01 09:31:13;;;;;;;6.00;3.65;;;17.90;99.50;;;;;;6220604;23;20016;-94
2023/07/01 09:33:40;;;;;;;5.60;3.92;;;19.60;99.40;;;;;;6223129;23;20016;-93
2023/07/01 09:36:07;;;;;;;4.43;3.33;;;19.70;99.30;;;;;;6222166;23;20044;-93
2023/07/01 09:38:48;;;;;;;4.22;3.53;;;19.70;99.40;;;;;;6223264;23;20012;-94
2023/07/01 09:41:16;;;;;;;3.95;3.50;;;19.80;99.40;;;;;;6247884;23;20016;-92
2023/07/01 09:43:42;;;;;;;3.78;3.20;;;21.40;99.80;;;;;;6216088;23;20796;-89
2023/07/01 09:46:08;;;;;;;4.40;3.25;;;20.00;99.40;;;;;;6215058;23;20549;-88
2023/07/01 09:52:03;;;;;;;4.57;3.60;;;20.30;99.90;;;;;;6230901;23;20063;-87
2023/07/01 09:54:42;;;;;;;6.50;3.78;;;20.10;99.90;;;;;;6213338;23;20016;-90
2023/07/01 09:57:08;;;;;;;5.55;3.42;;;19.10;99.90;;;;;;6215310;23;20016;-88
2023/07/01 09:59:44;;;;;;;4.25;3.28;;;20.40;99.90;;;;;;6240561;23;20023;-90
2023/07/01 10:02:10;;;;;;;4.28;3.58;;;20.50;99.90;;;;;;6210948;23;20023;-92
2023/07/01 10:04:40;;;;;;;4.43;3.70;;;20.40;99.90;;;;;;6235393;23;20043;-90
2023/07/01 10:07:07;;;;;;;5.55;4.10;;;20.10;99.90;;;;;;6213791;23;20027;-89
2023/07/01 10:09:43;;;;;;;5.97;3.65;;;20.70;99.90;;;;;;6214770;23;20355;-90
2023/07/01 10:12:15;;;;;;;4.07;2.78;;;20.80;99.90;;;;;;6240175;23;20451;-89
2023/07/01 10:14:47;;;;;;;4.28;3.50;;;19.50;99.90;;;;;;6214835;23;20027;-90
2023/07/01 10:17:22;;;;;;;3.33;2.80;;;20.20;99.90;;;;;;6216037;23;20090;-89
2023/07/01 10:19:48;;;;;;;3.65;3.30;;;20.00;99.90;;;;;;6214723;23;20048;-90
2023/07/01 10:22:29;;;;;;;4.13;3.20;;;18.10;99.90;;;;;;6216906;23;20024;-89
2023/07/01 10:25:08;;;;;;;4.80;3.08;;;20.70;99.90;;;;;;6215696;23;20016;-90
2023/07/01 10:28:00;;;;;;;4.30;3.58;;;21.20;99.90;;;;;;6216275;23;20098;-91
2023/07/01 10:30:49;;;;;;;3.95;3.08;;;20.50;99.90;;;;;;6216506;23;20065;-93
2023/07/01 10:33:35;;;;;;;4.32;3.28;;;20.80;99.90;;;;;;6216539;23;20816;-93
2023/07/01 10:36:28;;;;;;;3.38;2.97;;;21.40;99.90;;;;;;6215280;23;20027;-91
2023/07/01 10:39:33;;;;;;;3.90;3.00;;;21.60;99.90;;;;;;6216995;23;20077;-92
2023/07/01 10:42:05;;;;;;;4.00;3.08;;;23.80;99.90;;;;;;6241396;23;20609;-90
2023/07/01 10:44:31;;;;;;;4.05;3.55;;;21.50;99.90;;;;;;6215414;23;20031;-91
2023/07/01 10:47:16;;;;;;;5.70;4.60;;;21.40;99.30;;;;;;6214378;23;20027;-88
2023/07/01 10:50:09;;;;;;;4.60;4.13;;;24.20;99.90;;;;;;6215292;23;20052;-91
2023/07/01 10:53:03;;;;;;;4.28;3.67;;;22.70;99.10;;;;;;6203896;23;20078;-87
2023/07/01 10:55:44;;;;;;;4.78;3.83;;;21.90;98.40;;;;;;6214868;23;20016;-90
2023/07/01 10:58:24;;;;;;;4.90;4.43;;;21.90;97.90;;;;;;6212422;23;20392;-87
2023/07/01 11:00:58;;;;;;;6.00;5.18;;;21.80;98.00;;;;;;6203147;23;20822;-88
2023/07/01 11:03:35;;;;;;;5.40;4.65;;;21.80;98.00;;;;;;6238433;23;20539;-85
2023/07/01 11:06:02;;;;;;;5.00;4.50;;;22.20;98.40;;;;;;6210330;23;20912;-84
2023/07/01 11:08:29;;;;;;;5.38;4.53;;;22.00;97.70;;;;;;6209942;23;20481;-86
2023/07/01 11:10:55;;;;;;;5.35;4.85;;;22.00;97.50;;;;;;6208852;23;20020;-86
2023/07/01 11:13:22;;;;;;;4.78;4.28;;;22.10;97.90;;;;;;6209524;23;20016;-85
2023/07/01 11:16:08;;;;;;;4.95;4.45;;;22.30;97.60;;;;;;6235510;23;20475;-85
2023/07/01 11:18:44;;;;;;;4.47;4.07;;;22.50;97.60;;;;;;6210441;23;20016;-85
2023/07/01 11:21:12;;;;;;;4.57;4.00;;;23.40;97.80;;;;;;6211166;23;20011;-86
2023/07/01 11:23:42;;;;;;;4.80;4.30;;;22.80;97.40;;;;;;6236977;23;20019;-87
2023/07/01 11:26:08;;;;;;;4.43;4.03;;;22.80;97.40;;;;;;6212366;23;20479;-87
2023/07/01 11:28:35;;;;;;;4.65;3.85;;;22.80;97.50;;;;;;6212800;23;20027;-85
2023/07/01 11:31:20;;;;;;;4.75;3.60;;;22.80;97.50;;;;;;6236759;23;20016;-85
2023/07/01 11:33:50;;;;;;;5.22;4.53;;;22.70;97.50;;;;;;6237204;23;20016;-85
2023/07/01 11:36:19;;;;;;;4.40;4.00;;;22.50;97.70;;;;;;6212865;23;20488;-85
2023/07/01 11:38:49;;;;;;;4.93;4.47;;;22.30;97.90;;;;;;6212385;23;20012;-86
2023/07/01 11:41:20;;;;;;;4.18;3.72;;;22.10;98.40;;;;;;6211550;23;20055;-88
2023/07/01 11:43:46;;;;;;;;;;;21.90;98.70;;;;;;6236038;23;20503;-88
2023/07/01 11:46:13;;;;;;;4.85;4.32;;;21.60;99.10;;;;;;6209925;23;19966;-85
2023/07/01 11:48:42;;;;;;;6.18;4.82;;;21.30;99.30;;;;;;6233513;23;20081;-85
2023/07/01 11:51:08;;;;;;;7.72;4.35;;;21.10;99.80;;;;;;6207706;23;20031;-84
2023/07/01 11:53:41;;;;;;;6.75;4.22;;;20.90;99.90;;;;;;6232289;23;20024;-84
2023/07/01 11:56:16;;;;;;;10.60;5.05;;;20.60;99.90;;;;;;6235137;23;20027;-86
2023/07/01 11:58:48;;;;;;;8.73;4.97;;;20.50;99.90;;;;;;6235508;23;20018;-87
2023/07/01 12:01:27;;;;;;;7.50;4.15;;;20.30;99.90;;;;;;6210828;23;20008;-86
2023/07/01 12:03:54;;;;;;;5.55;4.68;;;20.00;99.90;;;;;;6209552;23;20012;-85
2023/07/01 12:06:25;;;;;;;4.90;4.40;;;19.90;99.90;;;;;;6210249;23;20027;-86
2023/07/01 12:08:57;;;;;;;4.85;4.13;;;19.90;99.90;;;;;;6249752;23;20020;-86
2023/07/01 12:11:25;;;;;;;6.15;4.22;;;19.90;99.90;;;;;;6248251;23;20024;-86
2023/07/01 12:13:51;;;;;;;4.32;3.92;;;19.80;99.90;;;;;;6217319;23;20023;-84
2023/07/01 12:16:18;;;;;;;5.95;4.32;;;19.80;99.90;;;;;;6210832;23;20055;-85
2023/07/01 12:18:44;;;;;;;4.38;3.13;;;19.70;99.90;;;;;;6211391;23;20048;-85
2023/07/01 12:21:10;;;;;;;3.13;2.00;;;19.70;99.90;;;;;;6210350;23;20078;-84
2023/07/01 12:23:44;;;;;;;2.95;1.48;;;19.80;99.90;;;;;;6208361;23;20118;-86
2023/07/01 12:26:11;;;;;;;1.60;1.20;;;20.00;99.90;;;;;;6209743;23;20440;-84
2023/07/01 12:28:40;;;;;;;2.65;1.40;;;20.30;99.90;;;;;;6237411;23;20016;-86
2023/07/01 12:31:07;;;;;;;3.58;1.63;;;20.60;99.90;;;;;;6209834;23;20090;-85
2023/07/01 12:33:34;;;;;;;3.78;1.55;;;21.00;99.90;;;;;;6208881;23;20059;-86
2023/07/01 12:36:00;;;;;;;2.30;1.40;;;21.20;99.90;;;;;;6208475;23;20016;-86
2023/07/01 12:38:27;;;;;;;2.78;1.42;;;21.50;99.90;;;;;;6208724;23;20402;-84
2023/07/01 12:40:54;;;;;;;2.40;1.77;;;21.70;99.90;;;;;;6234841;23;20074;-87
2023/07/01 12:43:27;;;;;;;3.83;1.80;;;22.00;99.90;;;;;;6229747;23;20016;-84
2023/07/01 12:45:54;;;;;;;4.43;2.00;;;22.10;99.90;;;;;;6208025;23;20016;-85
2023/07/01 12:48:21;;;;;;;2.70;1.38;;;22.10;99.90;;;;;;6208176;23;20388;-85
2023/07/01 12:50:47;;;;;;;4.45;1.42;;;22.00;99.90;;;;;;6205704;23;20066;-85
2023/07/01 12:53:14;;;;;;;2.05;1.60;;;21.70;99.90;;;;;;6200892;23;20391;-84
2023/07/01 12:55:40;;;;;;;4.30;1.83;;;21.40;99.90;;;;;;6234919;23;20478;-85
2023/07/01 12:58:06;;;;;;;4.13;2.38;;;21.10;99.90;;;;;;6233934;23;20016;-84
2023/07/01 13:00:32;;;;;;;4.25;1.98;;;20.80;99.90;;;;;;6233756;23;20019;-85